Time;durP1;ratioP1;P1;durP2;ratioP2;P2;SDS_P1;SDS_P2;PMS_P1;PMS_P2;Temp;Humidity;BMP_temperature;BMP_pressure;BME280_temperature;BME280_humidity;BME280_pressure;Samples;Min_cycle;Max_cycle;Signal;HPM_P1;HPM_P2
2022/05/23 00:01:27;;;;;;;3.65;1.90;;;14.60;92.30;;;;;;5030794;28;20025;-76
2022/05/23 00:03:52;;;;;;;5.05;1.63;;;14.60;92.60;;;;;;5030872;28;20026;-76
2022/05/23 00:06:20;;;;;;;4.15;1.33;;;14.50;92.60;;;;;;5031093;28;20195;-78
2022/05/23 00:08:47;;;;;;;3.80;1.45;;;14.50;92.30;;;;;;5030844;28;20049;-77
2022/05/23 00:11:13;;;;;;;3.50;1.30;;;14.60;91.90;;;;;;5030879;28;20392;-76
2022/05/23 00:13:38;;;;;;;6.80;1.30;;;14.60;91.80;;;;;;5030763;28;20519;-77
2022/05/23 00:16:05;;;;;;;3.35;1.23;;;14.50;91.90;;;;;;5030536;28;20030;-76
2022/05/23 00:18:31;;;;;;;2.13;1.27;;;14.50;92.10;;;;;;5030066;28;20163;-77
2022/05/23 00:20:57;;;;;;;4.10;1.40;;;14.50;92.00;;;;;;5030607;28;20049;-76
2022/05/23 00:23:22;;;;;;;3.60;1.60;;;14.50;92.10;;;;;;5030481;28;20034;-77
2022/05/23 00:25:49;;;;;;;4.13;1.60;;;14.50;92.10;;;;;;5030365;28;20092;-77
2022/05/23 00:28:15;;;;;;;8.73;1.65;;;14.50;92.30;;;;;;5029226;28;20116;-77
2022/05/23 00:30:40;;;;;;;5.40;1.60;;;14.40;92.30;;;;;;5030918;28;20160;-77
2022/05/23 00:35:55;;;;;;;5.53;1.50;;;14.40;92.20;;;;;;5030317;28;20037;-78
2022/05/23 00:38:21;;;;;;;4.78;1.70;;;14.40;92.20;;;;;;5030392;28;20029;-77
2022/05/23 00:43:57;;;;;;;6.72;1.48;;;14.40;92.20;;;;;;5030131;28;20555;-77
2022/05/23 00:46:24;;;;;;;4.43;1.70;;;14.40;92.20;;;;;;5029046;28;20034;-76
2022/05/23 00:48:51;;;;;;;3.40;1.70;;;14.40;92.30;;;;;;5028878;28;20051;-77
2022/05/23 00:51:18;;;;;;;6.53;2.20;;;14.30;92.20;;;;;;5029342;28;20029;-77
2022/05/23 00:53:46;;;;;;;10.05;2.30;;;14.40;92.00;;;;;;5030061;28;20133;-76
2022/05/23 00:56:14;;;;;;;7.13;2.13;;;14.40;91.90;;;;;;5028631;28;20022;-77
2022/05/23 00:58:45;;;;;;;7.72;2.38;;;14.40;91.50;;;;;;5029917;28;20412;-77
2022/05/23 01:01:15;;;;;;;6.03;1.92;;;14.40;91.70;;;;;;5028777;28;20455;-76
2022/05/23 01:03:40;;;;;;;7.38;2.03;;;14.40;91.60;;;;;;5030308;28;20111;-78
2022/05/23 01:06:08;;;;;;;6.20;2.10;;;14.40;91.60;;;;;;5029909;28;20057;-77
2022/05/23 01:08:38;;;;;;;5.25;2.38;;;14.30;91.60;;;;;;5029851;28;20236;-77
2022/05/23 01:11:05;;;;;;;7.22;2.30;;;14.30;91.70;;;;;;5029749;28;20056;-77
2022/05/23 01:13:31;;;;;;;6.70;2.50;;;14.30;91.70;;;;;;5029840;28;20132;-77
2022/05/23 01:15:57;;;;;;;3.55;1.85;;;14.30;91.80;;;;;;5033790;28;20426;-77
2022/05/23 01:18:23;;;;;;;6.88;2.22;;;14.30;91.80;;;;;;5033327;28;20243;-78
2022/05/23 01:20:59;;;;;;;7.57;2.25;;;14.20;92.00;;;;;;5032836;28;20021;-78
2022/05/23 01:23:51;;;;;;;8.07;2.17;;;14.30;91.90;;;;;;5033913;28;20042;-78
2022/05/23 01:26:18;;;;;;;6.97;3.60;;;14.30;92.00;;;;;;5034031;28;20373;-78
2022/05/23 01:28:44;;;;;;;11.63;2.75;;;14.30;92.20;;;;;;5033854;28;20334;-77
2022/05/23 01:31:12;;;;;;;8.30;3.30;;;14.20;92.40;;;;;;5034026;28;20452;-77
2022/05/23 01:33:38;;;;;;;8.00;2.53;;;14.20;92.20;;;;;;5034788;28;20022;-78
2022/05/23 01:36:04;;;;;;;8.57;2.80;;;14.30;92.30;;;;;;5034011;28;20022;-77
2022/05/23 01:38:30;;;;;;;8.00;2.63;;;14.20;92.70;;;;;;5032981;28;20029;-76
2022/05/23 01:40:56;;;;;;;6.22;2.60;;;14.20;92.80;;;;;;5033563;28;20374;-77
2022/05/23 01:43:23;;;;;;;10.05;3.45;;;14.30;92.40;;;;;;5033966;28;20049;-77
2022/05/23 01:45:49;;;;;;;9.48;3.13;;;14.30;92.10;;;;;;5033700;28;20033;-78
2022/05/23 01:48:14;;;;;;;7.95;3.08;;;14.30;92.40;;;;;;5034349;28;20033;-77
2022/05/23 01:50:40;;;;;;;8.13;2.92;;;14.30;92.40;;;;;;5032653;28;20037;-78
2022/05/23 01:53:06;;;;;;;11.20;3.42;;;14.20;92.50;;;;;;5033586;28;20026;-78
2022/05/23 01:55:32;;;;;;;5.88;2.72;;;14.20;92.60;;;;;;5033998;28;20029;-78
2022/05/23 01:57:57;;;;;;;11.75;4.28;;;14.20;92.70;;;;;;5033512;28;20037;-78
2022/05/23 02:03:08;;;;;;;11.07;3.40;;;14.30;92.60;;;;;;5033524;28;20041;-77
2022/05/23 02:05:33;;;;;;;11.57;3.50;;;14.30;92.20;;;;;;5033569;28;20025;-77
2022/05/23 02:08:00;;;;;;;9.27;3.92;;;14.30;92.60;;;;;;5033458;28;20036;-78
2022/05/23 02:10:27;;;;;;;8.70;3.53;;;14.20;92.80;;;;;;5033224;28;20129;-77
2022/05/23 02:12:52;;;;;;;11.32;3.75;;;14.20;92.90;;;;;;5033390;28;20029;-78
2022/05/23 02:15:19;;;;;;;7.88;3.55;;;14.20;93.30;;;;;;5033959;28;20095;-77
2022/05/23 02:17:45;;;;;;;9.85;3.92;;;14.20;92.90;;;;;;5033328;28;20192;-76
2022/05/23 02:20:11;;;;;;;12.43;3.65;;;14.20;93.30;;;;;;5032156;28;20040;-77
2022/05/23 02:22:37;;;;;;;10.88;3.60;;;14.10;93.30;;;;;;5032922;28;20063;-76
2022/05/23 02:25:04;;;;;;;10.93;3.63;;;14.20;93.40;;;;;;5032997;28;20025;-77
2022/05/23 02:27:30;;;;;;;7.72;3.90;;;14.10;93.60;;;;;;5033537;28;20037;-77
2022/05/23 02:29:57;;;;;;;9.20;3.50;;;14.10;93.70;;;;;;5032045;28;20030;-77
2022/05/23 02:32:22;;;;;;;8.10;3.90;;;14.10;93.50;;;;;;5033225;28;20474;-77
2022/05/23 02:34:48;;;;;;;7.60;3.67;;;14.20;93.30;;;;;;5033001;28;20033;-77
2022/05/23 02:37:14;;;;;;;9.23;3.75;;;14.10;93.40;;;;;;5031881;28;20053;-76
2022/05/23 02:39:40;;;;;;;13.63;4.32;;;14.20;93.60;;;;;;5032249;28;20026;-77
2022/05/23 02:42:07;;;;;;;14.07;4.40;;;14.20;93.50;;;;;;5032745;28;20057;-79
2022/05/23 02:44:37;;;;;;;8.20;4.53;;;14.10;93.60;;;;;;5032280;28;20040;-76
2022/05/23 02:47:06;;;;;;;13.95;4.15;;;14.10;93.50;;;;;;5026417;28;20025;-78
2022/05/23 02:49:31;;;;;;;10.88;4.05;;;14.10;93.50;;;;;;5032422;28;20214;-78
2022/05/23 02:51:57;;;;;;;9.52;3.90;;;14.10;93.20;;;;;;5032757;28;20026;-79
2022/05/23 02:54:23;;;;;;;7.88;3.55;;;14.00;93.10;;;;;;5033974;28;20033;-78
2022/05/23 02:56:48;;;;;;;7.95;3.40;;;14.10;93.10;;;;;;5032904;28;20137;-77
2022/05/23 02:59:14;;;;;;;11.63;4.13;;;14.10;93.20;;;;;;5032368;28;20091;-78
2022/05/23 03:04:35;;;;;;;10.32;3.80;;;14.10;93.50;;;;;;5012911;28;20053;-77
2022/05/23 03:07:00;;;;;;;10.70;3.63;;;14.10;93.40;;;;;;5031213;28;20459;-78
2022/05/23 03:09:30;;;;;;;6.10;3.30;;;14.10;93.40;;;;;;5032744;28;20083;-78
2022/05/23 03:11:55;;;;;;;12.07;3.58;;;14.00;93.60;;;;;;5032259;28;20033;-78
2022/05/23 03:14:21;;;;;;;7.15;3.60;;;14.00;93.50;;;;;;5032356;28;20040;-78
2022/05/23 03:16:47;;;;;;;11.18;4.15;;;14.00;93.50;;;;;;5032297;28;20041;-77
2022/05/23 03:19:12;;;;;;;9.80;3.88;;;14.00;93.30;;;;;;5030952;28;20033;-78
2022/05/23 03:27:07;;;;;;;15.40;4.50;;;13.90;93.80;;;;;;5032140;28;20102;-78
2022/05/23 03:29:32;;;;;;;7.65;3.35;;;14.10;94.10;;;;;;5032371;28;20037;-78
2022/05/23 03:31:58;;;;;;;7.43;3.67;;;14.10;93.80;;;;;;5032077;28;20029;-77
2022/05/23 03:34:24;;;;;;;9.38;3.35;;;14.10;93.90;;;;;;5031871;28;20493;-75
2022/05/23 03:36:49;;;;;;;8.48;3.70;;;14.10;93.90;;;;;;5031175;28;20044;-76
2022/05/23 03:39:16;;;;;;;9.95;3.83;;;14.10;93.80;;;;;;5032224;28;20423;-76
2022/05/23 03:41:42;;;;;;;9.52;3.75;;;14.20;93.90;;;;;;5031650;28;20061;-78
2022/05/23 03:44:08;;;;;;;10.18;3.92;;;14.20;93.80;;;;;;5030533;28;20076;-76
2022/05/23 03:46:35;;;;;;;13.35;4.10;;;14.20;93.80;;;;;;5030646;28;20140;-77
2022/05/23 03:49:01;;;;;;;11.68;3.38;;;14.20;93.70;;;;;;5031699;28;20104;-76
2022/05/23 03:51:27;;;;;;;13.52;4.05;;;14.30;93.80;;;;;;5031901;28;20025;-78
2022/05/23 03:53:53;;;;;;;12.95;3.50;;;14.10;93.90;;;;;;5031528;28;20481;-78
2022/05/23 03:56:19;;;;;;;12.75;3.95;;;14.20;94.00;;;;;;5031490;28;20025;-78
2022/05/23 03:58:45;;;;;;;6.47;3.42;;;14.20;94.10;;;;;;5030288;28;20025;-77
2022/05/23 04:01:17;;;;;;;10.38;3.47;;;14.20;93.90;;;;;;5031673;28;20347;-77
2022/05/23 04:03:42;;;;;;;11.05;3.83;;;14.30;94.00;;;;;;5031246;28;20492;-78
2022/05/23 04:06:09;;;;;;;6.40;3.35;;;14.30;93.80;;;;;;5031620;28;20033;-76
2022/05/23 04:08:35;;;;;;;7.55;3.58;;;14.30;93.70;;;;;;5031196;28;20459;-76
2022/05/23 04:11:04;;;;;;;13.85;3.63;;;14.30;93.80;;;;;;5030037;28;20045;-77
2022/05/23 04:13:30;;;;;;;7.55;3.15;;;14.30;93.80;;;;;;5031275;28;20029;-77
2022/05/23 04:15:56;;;;;;;6.95;3.08;;;14.40;93.60;;;;;;5030010;28;20037;-78
2022/05/23 04:18:21;;;;;;;7.35;2.92;;;14.40;93.50;;;;;;5031593;28;20243;-77
2022/05/23 04:20:47;;;;;;;11.32;4.78;;;14.40;93.50;;;;;;5031351;28;20120;-77
2022/05/23 04:23:13;;;;;;;7.65;3.38;;;14.40;93.60;;;;;;5031073;28;20044;-77
2022/05/23 04:25:40;;;;;;;17.33;4.43;;;14.40;93.70;;;;;;5030796;28;20179;-77
2022/05/23 04:28:06;;;;;;;24.48;5.57;;;14.40;93.70;;;;;;5030867;28;20048;-77
2022/05/23 04:30:32;;;;;;;7.90;3.55;;;14.40;93.80;;;;;;5031096;28;20423;-76
2022/05/23 04:35:43;;;;;;;10.68;4.18;;;14.60;93.30;;;;;;5030830;28;20091;-77
2022/05/23 04:38:08;;;;;;;5.93;2.92;;;14.60;93.40;;;;;;5030743;28;20108;-77
2022/05/23 04:40:34;;;;;;;7.70;3.00;;;14.70;93.20;;;;;;5030548;28;20128;-77
2022/05/23 04:43:03;;;;;;;9.85;3.60;;;14.80;93.20;;;;;;5030553;28;20040;-76
2022/05/23 04:45:29;;;;;;;10.40;2.92;;;14.80;93.20;;;;;;5031105;28;20408;-77
2022/05/23 04:50:39;;;;;;;9.25;3.55;;;14.90;93.10;;;;;;5030041;28;20383;-76
2022/05/23 04:53:05;;;;;;;7.18;2.70;;;15.00;93.20;;;;;;5030344;28;20033;-77
2022/05/23 04:55:33;;;;;;;9.52;3.95;;;15.00;93.00;;;;;;5029404;28;20041;-76
2022/05/23 04:57:59;;;;;;;12.60;3.70;;;15.00;92.90;;;;;;5030750;28;20021;-77
2022/05/23 05:00:29;;;;;;;13.77;4.05;;;15.10;92.80;;;;;;5029645;28;20029;-77
2022/05/23 05:02:59;;;;;;;11.60;3.15;;;15.20;92.90;;;;;;5029206;28;20029;-76
2022/05/23 05:05:28;;;;;;;9.25;3.33;;;15.20;92.80;;;;;;5030276;28;20033;-78
2022/05/23 05:07:58;;;;;;;9.38;3.20;;;15.20;92.70;;;;;;5030299;28;20044;-78
2022/05/23 05:10:24;;;;;;;9.40;3.25;;;15.30;92.60;;;;;;5030380;28;20029;-77
2022/05/23 05:12:50;;;;;;;7.50;3.33;;;15.30;92.60;;;;;;5029549;28;20018;-77
2022/05/23 05:15:17;;;;;;;8.15;2.67;;;15.40;92.60;;;;;;5030818;28;20036;-78
2022/05/23 05:17:42;;;;;;;9.98;2.90;;;15.50;92.50;;;;;;5030283;28;20041;-77
2022/05/23 05:20:08;;;;;;;9.48;2.78;;;15.60;92.30;;;;;;5030421;28;20033;-78
2022/05/23 05:22:35;;;;;;;7.80;2.90;;;15.50;92.50;;;;;;5028882;28;20466;-78
2022/05/23 05:25:03;;;;;;;10.82;2.60;;;15.50;92.50;;;;;;5030364;28;20048;-78
2022/05/23 05:27:29;;;;;;;10.73;2.70;;;15.60;92.40;;;;;;5030608;28;20028;-78
2022/05/23 05:29:55;;;;;;;8.48;2.40;;;15.70;92.40;;;;;;5029081;28;20050;-77
2022/05/23 05:32:30;;;;;;;6.47;2.85;;;15.70;92.50;;;;;;5029584;28;20072;-78
2022/05/23 05:35:14;;;;;;;12.73;3.13;;;15.80;92.50;;;;;;5029002;28;20550;-76
2022/05/23 05:37:45;;;;;;;5.57;2.72;;;15.90;92.40;;;;;;5029945;28;20466;-78
2022/05/23 05:40:14;;;;;;;6.72;2.58;;;15.90;92.40;;;;;;5028655;28;20254;-77
2022/05/23 05:42:47;;;;;;;6.68;2.35;;;16.00;92.30;;;;;;5029342;28;20056;-78
2022/05/23 05:45:17;;;;;;;10.98;3.05;;;16.10;92.30;;;;;;5030809;28;20451;-78
2022/05/23 05:47:46;;;;;;;5.85;2.72;;;16.00;92.30;;;;;;5029891;28;20080;-78
2022/05/23 05:50:17;;;;;;;11.65;2.90;;;16.00;92.20;;;;;;5028764;28;20061;-78
2022/05/23 05:52:44;;;;;;;7.07;2.35;;;16.00;92.20;;;;;;5029983;28;20026;-77
2022/05/23 05:55:10;;;;;;;4.47;2.53;;;16.00;92.20;;;;;;5029653;28;20184;-78
2022/05/23 05:57:36;;;;;;;5.85;2.30;;;16.00;92.20;;;;;;5030492;28;20037;-74
2022/05/23 06:00:04;;;;;;;6.20;2.83;;;16.00;92.70;;;;;;5030495;28;20041;-78
2022/05/23 06:02:30;;;;;;;5.32;2.88;;;16.10;92.60;;;;;;5033294;28;20040;-77
2022/05/23 06:04:55;;;;;;;6.22;2.53;;;16.00;92.50;;;;;;5033619;28;20037;-78
2022/05/23 06:12:59;;;;;;;12.77;5.60;;;16.10;92.50;;;;;;5033359;28;20367;-78
2022/05/23 06:15:25;;;;;;;12.23;3.50;;;16.20;92.50;;;;;;5032673;28;20029;-83
2022/05/23 06:17:52;;;;;;;9.13;4.75;;;16.10;92.50;;;;;;5033378;28;20537;-78
2022/05/23 06:20:19;;;;;;;9.77;4.32;;;16.10;92.60;;;;;;5033022;28;20060;-78
2022/05/23 06:22:45;;;;;;;12.55;3.95;;;16.10;92.40;;;;;;5031902;28;20401;-80
2022/05/23 06:25:11;;;;;;;18.75;4.70;;;16.10;92.60;;;;;;5031972;28;20435;-79
2022/05/23 06:27:37;;;;;;;8.50;3.15;;;16.10;92.50;;;;;;5033249;28;20450;-78
2022/05/23 06:30:09;;;;;;;8.93;4.07;;;16.20;92.40;;;;;;5032805;28;20068;-77
2022/05/23 06:32:36;;;;;;;10.55;3.80;;;16.30;92.40;;;;;;5031743;28;20437;-74
2022/05/23 06:35:02;;;;;;;7.88;3.13;;;16.30;92.40;;;;;;5032825;28;20037;-76
2022/05/23 06:37:28;;;;;;;11.40;3.85;;;16.40;92.30;;;;;;5032716;28;20076;-78
2022/05/23 06:39:53;;;;;;;9.80;4.05;;;16.40;92.60;;;;;;5032468;28;20467;-74
2022/05/23 06:42:19;;;;;;;10.52;3.53;;;16.40;92.80;;;;;;5033058;28;20479;-77
2022/05/23 06:44:45;;;;;;;10.40;4.43;;;16.50;92.30;;;;;;5032338;28;20486;-77
2022/05/23 06:47:10;;;;;;;10.77;3.90;;;16.50;92.40;;;;;;5032566;28;20033;-76
2022/05/23 06:49:36;;;;;;;11.38;3.25;;;16.60;92.30;;;;;;5032442;28;20423;-75
2022/05/23 06:52:02;;;;;;;4.47;2.83;;;16.60;92.20;;;;;;5032212;28;20456;-77
2022/05/23 06:54:28;;;;;;;9.13;3.55;;;16.50;92.20;;;;;;5032775;28;20021;-74
2022/05/23 06:56:53;;;;;;;11.27;3.60;;;16.60;92.10;;;;;;5032583;28;20468;-79
2022/05/23 06:59:19;;;;;;;12.35;3.63;;;16.60;92.00;;;;;;5032595;28;20036;-77
2022/05/23 07:01:46;;;;;;;10.15;3.60;;;16.60;92.20;;;;;;5031205;28;20056;-81
2022/05/23 07:04:11;;;;;;;10.18;3.25;;;16.60;91.90;;;;;;5032334;28;20471;-79
2022/05/23 07:12:27;;;;;;;8.07;2.85;;;16.70;92.10;;;;;;5031429;28;20072;-76
2022/05/23 07:14:56;;;;;;;6.85;3.33;;;16.70;92.00;;;;;;5031801;28;20041;-76
2022/05/23 07:17:23;;;;;;;9.52;3.33;;;16.80;91.90;;;;;;5031556;28;20026;-74
2022/05/23 07:19:49;;;;;;;16.77;3.03;;;16.90;91.90;;;;;;5031892;28;20025;-76
2022/05/23 07:22:15;;;;;;;19.52;9.02;;;17.00;91.80;;;;;;5031328;28;20057;-75
2022/05/23 07:24:41;;;;;;;16.38;3.85;;;17.10;91.80;;;;;;5030639;28;20029;-75
2022/05/23 07:27:07;;;;;;;13.82;3.83;;;17.20;91.50;;;;;;5032068;28;20047;-75
2022/05/23 07:29:33;;;;;;;8.10;3.10;;;17.40;91.80;;;;;;5030766;28;20408;-76
2022/05/23 07:31:58;;;;;;;9.68;2.80;;;17.50;91.40;;;;;;5031461;28;20462;-76
2022/05/23 07:34:24;;;;;;;4.65;2.63;;;17.50;91.20;;;;;;5031873;28;20029;-81
2022/05/23 07:36:50;;;;;;;5.45;2.78;;;17.50;91.00;;;;;;5031193;28;20022;-77
2022/05/23 07:39:16;;;;;;;4.78;2.95;;;17.60;91.10;;;;;;5031910;28;20093;-77
2022/05/23 07:41:43;;;;;;;9.15;3.08;;;17.60;91.00;;;;;;5031441;28;20050;-75
2022/05/23 07:44:11;;;;;;;10.90;3.70;;;17.60;91.00;;;;;;5031443;28;20482;-75
2022/05/23 07:46:37;;;;;;;10.35;3.63;;;17.60;91.10;;;;;;5031203;28;20037;-76
2022/05/23 07:49:04;;;;;;;10.70;3.65;;;17.70;91.00;;;;;;5031128;28;20034;-77
2022/05/23 07:51:32;;;;;;;9.90;3.53;;;17.70;90.90;;;;;;5031574;28;20052;-75
2022/05/23 08:02:13;;;;;;;10.82;3.28;;;17.70;91.00;;;;;;5031021;28;20045;-75
2022/05/23 08:04:39;;;;;;;7.50;3.15;;;17.70;91.00;;;;;;5031330;28;20355;-74
2022/05/23 08:07:05;;;;;;;8.45;2.92;;;17.70;91.10;;;;;;5029701;28;20036;-74
2022/05/23 08:09:31;;;;;;;10.52;3.33;;;17.80;91.10;;;;;;5030221;28;20021;-74
2022/05/23 08:11:57;;;;;;;12.15;4.00;;;17.80;91.00;;;;;;5030930;28;20026;-73
2022/05/23 08:14:23;;;;;;;9.63;3.10;;;17.90;90.90;;;;;;5030379;28;20446;-75
2022/05/23 08:16:51;;;;;;;11.65;2.88;;;18.00;91.00;;;;;;5029524;28;20400;-76
2022/05/23 08:19:16;;;;;;;10.00;2.87;;;17.90;91.00;;;;;;5030642;28;20455;-75
2022/05/23 08:21:54;;;;;;;15.23;4.35;;;18.00;91.00;;;;;;5030591;28;20103;-74
2022/05/23 08:24:20;;;;;;;6.15;2.95;;;18.10;90.70;;;;;;5029600;28;20117;-75
2022/05/23 08:26:46;;;;;;;7.55;3.72;;;18.10;90.70;;;;;;5030511;28;20041;-74
2022/05/23 08:29:12;;;;;;;9.48;3.08;;;18.10;90.60;;;;;;5030469;28;20034;-75
2022/05/23 08:31:39;;;;;;;5.60;2.83;;;18.20;90.50;;;;;;5030363;28;20036;-76
2022/05/23 08:34:06;;;;;;;11.40;4.18;;;18.20;90.60;;;;;;5030267;28;20030;-75
2022/05/23 08:36:31;;;;;;;9.23;3.20;;;18.30;90.70;;;;;;5031076;28;20014;-75
2022/05/23 08:38:58;;;;;;;5.10;3.20;;;18.30;90.60;;;;;;5029256;28;20029;-75
2022/05/23 08:41:37;;;;;;;7.65;3.35;;;18.30;90.60;;;;;;5030024;28;20052;-74
2022/05/23 08:44:24;;;;;;;10.70;3.40;;;18.30;90.60;;;;;;5029898;28;20416;-75
2022/05/23 08:47:05;;;;;;;5.82;3.05;;;18.40;90.50;;;;;;5030028;28;20052;-75
2022/05/23 08:49:41;;;;;;;8.70;3.17;;;18.50;90.60;;;;;;5030410;28;20053;-78
2022/05/23 08:52:29;;;;;;;9.80;3.15;;;18.60;90.40;;;;;;5029261;28;20423;-76
2022/05/23 08:55:19;;;;;;;5.75;3.22;;;18.60;90.40;;;;;;5029241;28;20079;-77
2022/05/23 08:58:08;;;;;;;8.05;3.15;;;18.60;90.40;;;;;;5029943;28;20426;-78
2022/05/23 09:00:43;;;;;;;14.60;3.95;;;18.70;90.60;;;;;;5019494;28;20040;-78
2022/05/23 09:03:38;;;;;;;7.15;3.17;;;18.70;90.50;;;;;;5030060;28;20119;-78
2022/05/23 09:06:28;;;;;;;11.85;3.67;;;18.80;90.50;;;;;;5029946;28;20034;-76
2022/05/23 09:08:58;;;;;;;10.52;3.40;;;18.80;90.50;;;;;;5029008;28;20077;-76
2022/05/23 09:11:29;;;;;;;8.77;4.03;;;18.90;90.40;;;;;;5029276;28;20037;-78
2022/05/23 09:13:55;;;;;;;9.55;4.03;;;19.00;90.10;;;;;;5030373;28;20160;-75
2022/05/23 09:16:24;;;;;;;6.10;3.47;;;19.10;90.10;;;;;;5030171;28;20057;-76
2022/05/23 09:19:02;;;;;;;9.85;3.72;;;19.20;90.10;;;;;;5028877;28;20021;-76
2022/05/23 09:24:16;;;;;;;10.73;3.75;;;19.40;90.20;;;;;;5030235;28;20044;-76
2022/05/23 09:26:44;;;;;;;9.68;3.95;;;19.50;89.90;;;;;;5029084;28;20025;-74
2022/05/23 09:29:10;;;;;;;10.90;4.57;;;19.60;90.00;;;;;;5029829;28;20605;-75
2022/05/23 09:32:02;;;;;;;11.45;4.35;;;19.70;89.80;;;;;;5029763;28;20315;-75
2022/05/23 09:34:55;;;;;;;10.43;4.15;;;19.70;89.50;;;;;;5029427;28;20031;-78
2022/05/23 09:37:30;;;;;;;11.75;4.50;;;19.70;89.30;;;;;;5032862;28;20030;-77
2022/05/23 09:39:59;;;;;;;11.32;4.25;;;19.90;89.30;;;;;;5032706;28;20451;-76
2022/05/23 09:48:21;;;;;;;11.02;4.22;;;20.30;88.80;;;;;;5034003;28;20040;-75
2022/05/23 09:51:13;;;;;;;10.27;3.60;;;20.40;88.40;;;;;;5033767;28;20040;-74
2022/05/23 09:53:55;;;;;;;14.32;3.55;;;20.60;87.70;;;;;;5032719;28;20550;-74
2022/05/23 09:56:29;;;;;;;6.97;3.70;;;20.70;87.70;;;;;;5033786;28;20037;-74
2022/05/23 09:58:55;;;;;;;9.60;3.65;;;20.90;87.10;;;;;;5034005;28;20045;-75
2022/05/23 10:01:27;;;;;;;9.70;3.50;;;21.10;87.20;;;;;;5032351;28;20033;-76
2022/05/23 10:03:55;;;;;;;6.03;3.40;;;21.30;85.30;;;;;;5032993;28;20375;-75
2022/05/23 10:06:37;;;;;;;11.80;3.10;;;21.40;85.60;;;;;;5034137;28;20104;-75
2022/05/23 10:09:07;;;;;;;8.57;3.63;;;21.50;84.30;;;;;;5034045;28;20026;-75
2022/05/23 10:11:36;;;;;;;7.57;3.35;;;21.50;84.10;;;;;;5033343;28;20506;-76
2022/05/23 10:14:16;;;;;;;7.57;3.75;;;21.50;84.00;;;;;;5033146;28;20033;-72
2022/05/23 10:16:55;;;;;;;11.65;3.50;;;21.60;83.80;;;;;;5032938;28;20412;-73
2022/05/23 10:19:33;;;;;;;8.27;3.42;;;21.70;83.50;;;;;;5033017;28;20034;-75
2022/05/23 10:22:12;;;;;;;;;;;21.70;83.20;;;;;;5033362;28;20108;-75
2022/05/23 10:24:53;;;;;;;8.05;3.25;;;21.90;82.50;;;;;;5032597;28;19932;-75
2022/05/23 10:27:50;;;;;;;6.47;3.08;;;22.20;82.60;;;;;;5032041;28;20245;-74
2022/05/23 10:30:18;;;;;;;;;;;22.20;81.90;;;;;;5052420;28;20379;-77
2022/05/23 10:32:48;;;;;;;8.25;3.47;;;22.30;82.30;;;;;;5052736;28;19909;-76
2022/05/23 10:35:32;;;;;;;10.30;3.25;;;22.40;81.70;;;;;;5052492;28;20437;-77
2022/05/23 10:42:07;;;;;;;12.75;3.72;;;22.60;80.80;;;;;;5052309;28;20037;-78
2022/05/23 10:43:49;;;;;;;6.43;2.67;;;22.80;81.00;;;;;;5045482;28;20052;-77
2022/05/23 10:46:15;;;;;;;7.00;3.05;;;22.80;80.90;;;;;;5030495;28;20037;-76
2022/05/23 10:48:55;;;;;;;5.53;2.70;;;22.80;79.30;;;;;;5032153;28;20022;-76
2022/05/23 10:51:29;;;;;;;5.40;2.67;;;22.90;79.00;;;;;;5033029;28;20045;-77
2022/05/23 10:54:27;;;;;;;7.13;3.15;;;22.70;79.30;;;;;;5032690;28;20025;-75
2022/05/23 10:57:14;;;;;;;9.82;3.25;;;22.80;79.70;;;;;;5032354;28;20167;-75
2022/05/23 11:00:14;;;;;;;4.75;2.40;;;22.70;78.70;;;;;;5032313;28;20030;-74
2022/05/23 11:02:52;;;;;;;6.95;2.90;;;22.80;79.20;;;;;;5031170;28;20041;-75
2022/05/23 11:05:25;;;;;;;5.03;2.50;;;22.80;78.60;;;;;;5031057;28;20037;-74
2022/05/23 11:08:16;;;;;;;7.75;2.20;;;22.90;79.20;;;;;;5031881;28;20029;-74
2022/05/23 11:11:06;;;;;;;7.38;2.83;;;23.10;78.90;;;;;;5030385;28;20022;-73
2022/05/23 11:13:51;;;;;;;11.65;3.42;;;23.10;78.80;;;;;;5031646;28;20029;-74
2022/05/23 11:16:52;;;;;;;9.68;2.60;;;23.20;78.80;;;;;;5031673;28;20136;-73
2022/05/23 11:19:28;;;;;;;4.53;2.28;;;23.50;78.30;;;;;;5031680;28;20470;-75
2022/05/23 11:22:03;;;;;;;7.82;2.17;;;23.50;78.00;;;;;;5031750;28;20329;-72
2022/05/23 11:24:46;;;;;;;6.32;2.22;;;23.50;77.80;;;;;;5032024;28;20029;-72
2022/05/23 11:35:44;;;;;;;5.35;2.47;;;23.60;77.10;;;;;;5031303;28;20037;-71
2022/05/23 11:38:11;;;;;;;8.75;2.38;;;23.50;77.00;;;;;;5031376;28;20049;-73
2022/05/23 11:40:39;;;;;;;5.43;2.25;;;23.60;77.00;;;;;;5030915;28;20076;-72
2022/05/23 11:43:09;;;;;;;6.97;2.08;;;23.60;77.30;;;;;;5031407;28;20111;-73
2022/05/23 11:48:27;;;;;;;9.52;3.05;;;23.90;76.60;;;;;;5031309;28;20136;-74
2022/05/23 11:50:54;;;;;;;5.85;2.50;;;24.10;76.20;;;;;;5031189;28;20033;-74
2022/05/23 11:53:28;;;;;;;8.20;2.00;;;24.20;75.60;;;;;;5031099;28;20332;-72
2022/05/23 11:55:57;;;;;;;7.97;1.80;;;24.40;75.60;;;;;;5031457;28;20041;-73
2022/05/23 11:58:43;;;;;;;5.30;2.15;;;24.50;75.20;;;;;;5030734;28;20287;-73
2022/05/23 12:01:11;;;;;;;7.28;2.40;;;24.50;75.00;;;;;;5029890;28;20489;-73
2022/05/23 12:03:52;;;;;;;6.68;2.20;;;24.60;73.50;;;;;;5031425;28;20068;-72
2022/05/23 12:06:23;;;;;;;5.00;1.75;;;24.40;72.00;;;;;;5030779;28;20048;-72
2022/05/23 12:09:01;;;;;;;5.68;2.17;;;24.30;70.80;;;;;;5029997;28;20495;-72
2022/05/23 12:11:31;;;;;;;5.93;1.73;;;24.30;71.70;;;;;;5030947;28;20491;-73
2022/05/23 12:14:13;;;;;;;4.93;2.28;;;24.30;71.50;;;;;;5030682;28;20113;-74
2022/05/23 12:16:41;;;;;;;8.32;2.80;;;24.20;72.20;;;;;;5030654;28;20044;-73
2022/05/23 12:19:40;;;;;;;7.25;2.25;;;24.20;72.40;;;;;;5030598;28;20366;-74
2022/05/23 12:22:26;;;;;;;11.38;2.45;;;24.10;72.60;;;;;;5030679;28;20482;-72
2022/05/23 12:25:01;;;;;;;7.38;2.38;;;24.00;73.40;;;;;;5030486;28;20466;-74
2022/05/23 12:27:30;;;;;;;5.25;1.70;;;24.10;73.70;;;;;;5031675;28;20040;-73
2022/05/23 12:30:22;;;;;;;6.00;2.10;;;24.10;73.60;;;;;;5030203;28;20036;-74
2022/05/23 12:32:51;;;;;;;4.93;2.20;;;23.90;73.90;;;;;;5030599;28;20033;-74
2022/05/23 12:35:20;;;;;;;6.07;2.72;;;24.00;74.60;;;;;;5029569;28;20124;-73
2022/05/23 12:38:14;;;;;;;5.68;2.00;;;23.90;74.30;;;;;;5030530;28;20034;-74
2022/05/23 12:41:06;;;;;;;4.32;2.70;;;24.00;75.00;;;;;;5030194;28;20042;-74
2022/05/23 12:43:38;;;;;;;5.93;2.10;;;24.00;74.70;;;;;;5030437;28;20092;-73
2022/05/23 12:46:20;;;;;;;7.50;2.13;;;23.90;75.40;;;;;;5030335;28;20351;-72
2022/05/23 12:48:51;;;;;;;6.35;2.78;;;24.10;75.50;;;;;;5030257;28;20370;-73
2022/05/23 12:51:45;;;;;;;7.28;3.80;;;24.20;74.80;;;;;;5030625;28;20034;-78
2022/05/23 12:54:36;;;;;;;10.25;2.58;;;24.30;74.80;;;;;;5030215;28;20037;-72
2022/05/23 12:57:13;;;;;;;9.52;2.15;;;24.40;75.90;;;;;;5028980;28;20029;-73
2022/05/23 12:59:51;;;;;;;8.60;3.65;;;24.40;74.70;;;;;;5030252;28;20316;-74
2022/05/23 13:02:40;;;;;;;6.68;2.17;;;24.40;75.10;;;;;;5030397;28;20033;-73
2022/05/23 13:05:12;;;;;;;5.38;2.10;;;24.40;74.60;;;;;;5029900;28;20363;-73
2022/05/23 13:07:49;;;;;;;5.88;2.70;;;24.40;74.40;;;;;;5028830;28;20032;-72
2022/05/23 13:10:19;;;;;;;8.38;2.15;;;24.40;74.90;;;;;;5029107;28;20657;-74
2022/05/23 13:12:59;;;;;;;6.03;2.08;;;24.40;74.80;;;;;;5030244;28;20036;-76
2022/05/23 13:15:28;;;;;;;8.43;2.00;;;24.40;75.00;;;;;;5030774;28;20025;-74
2022/05/23 13:22:05;;;;;;;5.65;2.03;;;24.40;74.90;;;;;;5030030;28;20037;-76
2022/05/23 13:23:25;;;;;;;5.03;1.77;;;24.60;74.60;;;;;;5029829;28;20077;-74
2022/05/23 13:25:52;;;;;;;7.88;2.00;;;24.60;74.40;;;;;;5030024;28;20029;-75
2022/05/23 13:28:19;;;;;;;5.40;2.50;;;24.60;74.50;;;;;;5029039;28;20025;-75
2022/05/23 13:30:52;;;;;;;4.25;1.67;;;24.70;74.90;;;;;;5030064;28;20025;-75
2022/05/23 13:33:22;;;;;;;5.35;1.90;;;24.80;74.70;;;;;;5029499;28;20033;-77
2022/05/23 13:35:57;;;;;;;7.00;2.78;;;24.80;74.30;;;;;;5030406;28;20089;-76
2022/05/23 13:38:29;;;;;;;8.15;2.30;;;24.90;74.50;;;;;;5030120;28;20164;-75
2022/05/23 13:40:57;;;;;;;5.20;1.70;;;24.80;74.40;;;;;;5029710;28;20507;-74
2022/05/23 13:43:31;;;;;;;9.40;1.88;;;24.80;74.00;;;;;;5028711;28;20045;-76
2022/05/23 13:46:11;;;;;;;5.13;2.10;;;24.90;73.80;;;;;;5028746;28;20029;-75
2022/05/23 13:48:43;;;;;;;9.48;1.98;;;24.90;73.10;;;;;;5030175;28;20126;-76
2022/05/23 13:51:14;;;;;;;5.32;1.98;;;24.80;72.90;;;;;;5049362;28;20634;-75
2022/05/23 13:53:46;;;;;;;7.18;1.90;;;24.90;73.20;;;;;;5049576;28;20493;-79
2022/05/23 13:56:13;;;;;;;4.25;1.60;;;24.90;73.00;;;;;;5049393;28;20194;-75
2022/05/23 13:58:49;;;;;;;6.13;1.63;;;24.90;72.80;;;;;;5047217;28;20033;-77
2022/05/23 14:01:19;;;;;;;4.20;1.38;;;24.90;73.00;;;;;;5049674;28;20033;-77
2022/05/23 14:04:07;;;;;;;8.65;2.10;;;24.80;72.70;;;;;;5048525;28;20446;-75
2022/05/23 14:06:39;;;;;;;5.53;1.60;;;24.80;72.70;;;;;;5030604;28;20026;-76
2022/05/23 14:09:07;;;;;;;7.03;1.80;;;24.90;71.80;;;;;;5030105;28;20394;-74
2022/05/23 14:11:48;;;;;;;4.32;1.75;;;24.90;70.90;;;;;;5029040;28;20033;-74